sensor_id;sensor_type;location;lat;lon;timestamp;P1;durP1;ratioP1;P2;durP2;ratioP2
28802;SDS011;15949;55.656;37.422;2023-05-07T00:01:57;11.55;;;5.07;;
28802;SDS011;15949;55.656;37.422;2023-05-07T00:07:03;8.32;;;4.95;;
28802;SDS011;15949;55.656;37.422;2023-05-07T00:12:09;9.13;;;5.03;;
28802;SDS011;15949;55.656;37.422;2023-05-07T00:17:15;7.88;;;5.25;;
28802;SDS011;15949;55.656;37.422;2023-05-07T00:22:20;7.18;;;4.97;;
28802;SDS011;15949;55.656;37.422;2023-05-07T00:27:26;6.38;;;5.05;;
28802;SDS011;15949;55.656;37.422;2023-05-07T00:32:32;8.38;;;5.20;;
28802;SDS011;15949;55.656;37.422;2023-05-07T00:37:38;8.23;;;5.05;;
28802;SDS011;15949;55.656;37.422;2023-05-07T00:42:43;8.40;;;5.10;;
28802;SDS011;15949;55.656;37.422;2023-05-07T00:47:54;9.63;;;4.68;;
28802;SDS011;15949;55.656;37.422;2023-05-07T00:53:00;9.32;;;5.28;;
28802;SDS011;15949;55.656;37.422;2023-05-07T00:58:06;12.43;;;5.20;;
28802;SDS011;15949;55.656;37.422;2023-05-07T01:03:12;9.35;;;4.80;;
28802;SDS011;15949;55.656;37.422;2023-05-07T01:08:18;6.85;;;4.95;;
28802;SDS011;15949;55.656;37.422;2023-05-07T01:13:24;8.05;;;5.10;;
28802;SDS011;15949;55.656;37.422;2023-05-07T01:18:30;7.15;;;5.10;;
28802;SDS011;15949;55.656;37.422;2023-05-07T01:23:35;10.43;;;4.80;;
28802;SDS011;15949;55.656;37.422;2023-05-07T01:28:41;5.65;;;4.40;;
28802;SDS011;15949;55.656;37.422;2023-05-07T01:33:47;6.45;;;4.07;;
28802;SDS011;15949;55.656;37.422;2023-05-07T01:38:55;6.68;;;4.32;;
28802;SDS011;15949;55.656;37.422;2023-05-07T01:44:03;6.70;;;4.70;;
28802;SDS011;15949;55.656;37.422;2023-05-07T01:49:10;7.15;;;5.00;;
28802;SDS011;15949;55.656;37.422;2023-05-07T01:54:15;5.55;;;4.53;;
28802;SDS011;15949;55.656;37.422;2023-05-07T01:59:21;7.20;;;4.60;;
28802;SDS011;15949;55.656;37.422;2023-05-07T02:04:27;5.55;;;4.40;;
28802;SDS011;15949;55.656;37.422;2023-05-07T02:09:33;6.32;;;4.78;;
28802;SDS011;15949;55.656;37.422;2023-05-07T02:14:39;6.05;;;4.50;;
28802;SDS011;15949;55.656;37.422;2023-05-07T02:19:44;7.70;;;4.57;;
28802;SDS011;15949;55.656;37.422;2023-05-07T02:24:50;7.45;;;4.72;;
28802;SDS011;15949;55.656;37.422;2023-05-07T02:29:56;6.65;;;4.63;;
28802;SDS011;15949;55.656;37.422;2023-05-07T02:35:01;7.22;;;5.00;;
28802;SDS011;15949;55.656;37.422;2023-05-07T02:40:07;9.82;;;4.38;;
28802;SDS011;15949;55.656;37.422;2023-05-07T02:45:13;7.85;;;4.85;;
28802;SDS011;15949;55.656;37.422;2023-05-07T02:50:20;6.22;;;4.25;;
28802;SDS011;15949;55.656;37.422;2023-05-07T02:55:25;10.05;;;5.38;;
28802;SDS011;15949;55.656;37.422;2023-05-07T03:00:31;5.10;;;4.05;;
28802;SDS011;15949;55.656;37.422;2023-05-07T03:05:37;8.82;;;4.85;;
28802;SDS011;15949;55.656;37.422;2023-05-07T03:10:42;7.15;;;3.97;;
28802;SDS011;15949;55.656;37.422;2023-05-07T03:15:48;6.32;;;4.00;;
28802;SDS011;15949;55.656;37.422;2023-05-07T03:20:54;6.28;;;3.80;;
28802;SDS011;15949;55.656;37.422;2023-05-07T03:25:59;5.97;;;3.67;;
28802;SDS011;15949;55.656;37.422;2023-05-07T03:31:05;5.85;;;3.65;;
28802;SDS011;15949;55.656;37.422;2023-05-07T03:36:11;6.40;;;4.07;;
28802;SDS011;15949;55.656;37.422;2023-05-07T03:41:17;5.85;;;4.13;;
28802;SDS011;15949;55.656;37.422;2023-05-07T03:46:22;6.93;;;4.05;;
28802;SDS011;15949;55.656;37.422;2023-05-07T03:51:31;6.43;;;3.72;;
28802;SDS011;15949;55.656;37.422;2023-05-07T03:56:36;4.85;;;4.28;;
28802;SDS011;15949;55.656;37.422;2023-05-07T04:01:42;5.30;;;4.10;;
28802;SDS011;15949;55.656;37.422;2023-05-07T04:06:48;5.53;;;3.97;;
28802;SDS011;15949;55.656;37.422;2023-05-07T04:11:54;5.90;;;3.78;;
28802;SDS011;15949;55.656;37.422;2023-05-07T04:16:59;5.53;;;3.67;;
28802;SDS011;15949;55.656;37.422;2023-05-07T04:22:05;7.47;;;3.88;;
28802;SDS011;15949;55.656;37.422;2023-05-07T04:27:11;5.95;;;3.53;;
28802;SDS011;15949;55.656;37.422;2023-05-07T04:32:17;5.75;;;3.40;;
28802;SDS011;15949;55.656;37.422;2023-05-07T04:37:22;6.15;;;3.40;;
28802;SDS011;15949;55.656;37.422;2023-05-07T04:42:28;5.85;;;3.05;;
28802;SDS011;15949;55.656;37.422;2023-05-07T04:47:34;4.35;;;3.00;;
28802;SDS011;15949;55.656;37.422;2023-05-07T04:52:40;4.18;;;2.80;;
28802;SDS011;15949;55.656;37.422;2023-05-07T04:57:45;4.95;;;3.30;;
28802;SDS011;15949;55.656;37.422;2023-05-07T05:02:51;5.18;;;3.15;;
28802;SDS011;15949;55.656;37.422;2023-05-07T05:07:57;5.72;;;2.42;;
28802;SDS011;15949;55.656;37.422;2023-05-07T05:13:02;6.05;;;2.78;;
28802;SDS011;15949;55.656;37.422;2023-05-07T05:18:08;8.15;;;3.13;;
28802;SDS011;15949;55.656;37.422;2023-05-07T05:23:14;4.57;;;2.70;;
28802;SDS011;15949;55.656;37.422;2023-05-07T05:28:19;3.85;;;2.13;;
28802;SDS011;15949;55.656;37.422;2023-05-07T05:33:25;5.45;;;2.17;;
28802;SDS011;15949;55.656;37.422;2023-05-07T05:38:31;4.95;;;2.15;;
28802;SDS011;15949;55.656;37.422;2023-05-07T05:43:36;3.75;;;2.30;;
28802;SDS011;15949;55.656;37.422;2023-05-07T05:48:42;3.45;;;2.10;;
28802;SDS011;15949;55.656;37.422;2023-05-07T05:53:48;3.17;;;1.88;;
28802;SDS011;15949;55.656;37.422;2023-05-07T05:58:54;2.78;;;1.73;;
28802;SDS011;15949;55.656;37.422;2023-05-07T06:04:00;3.05;;;1.52;;
28802;SDS011;15949;55.656;37.422;2023-05-07T06:09:05;6.93;;;2.00;;
28802;SDS011;15949;55.656;37.422;2023-05-07T06:14:11;2.65;;;1.80;;
28802;SDS011;15949;55.656;37.422;2023-05-07T06:19:17;3.85;;;1.88;;
28802;SDS011;15949;55.656;37.422;2023-05-07T06:24:28;4.63;;;2.10;;
28802;SDS011;15949;55.656;37.422;2023-05-07T06:29:34;3.90;;;1.83;;
28802;SDS011;15949;55.656;37.422;2023-05-07T06:34:40;2.88;;;1.50;;
28802;SDS011;15949;55.656;37.422;2023-05-07T06:39:46;3.20;;;1.60;;
28802;SDS011;15949;55.656;37.422;2023-05-07T06:44:52;3.75;;;1.77;;
28802;SDS011;15949;55.656;37.422;2023-05-07T06:49:58;4.40;;;1.58;;
28802;SDS011;15949;55.656;37.422;2023-05-07T06:55:03;2.47;;;1.73;;
28802;SDS011;15949;55.656;37.422;2023-05-07T07:00:10;2.47;;;1.50;;
28802;SDS011;15949;55.656;37.422;2023-05-07T07:05:16;2.15;;;1.48;;
28802;SDS011;15949;55.656;37.422;2023-05-07T07:10:22;2.83;;;1.60;;
28802;SDS011;15949;55.656;37.422;2023-05-07T07:15:28;3.28;;;1.50;;
28802;SDS011;15949;55.656;37.422;2023-05-07T07:20:34;4.82;;;1.40;;
28802;SDS011;15949;55.656;37.422;2023-05-07T07:25:40;8.55;;;1.80;;
28802;SDS011;15949;55.656;37.422;2023-05-07T07:30:45;2.15;;;1.50;;
28802;SDS011;15949;55.656;37.422;2023-05-07T07:35:51;2.75;;;1.42;;
28802;SDS011;15949;55.656;37.422;2023-05-07T07:40:57;4.95;;;1.77;;
28802;SDS011;15949;55.656;37.422;2023-05-07T07:46:02;5.85;;;1.77;;
28802;SDS011;15949;55.656;37.422;2023-05-07T07:51:08;4.88;;;1.50;;
28802;SDS011;15949;55.656;37.422;2023-05-07T07:56:13;3.70;;;1.63;;
28802;SDS011;15949;55.656;37.422;2023-05-07T08:01:20;4.65;;;1.38;;
28802;SDS011;15949;55.656;37.422;2023-05-07T08:06:25;6.95;;;1.70;;
28802;SDS011;15949;55.656;37.422;2023-05-07T08:11:31;5.93;;;1.70;;
28802;SDS011;15949;55.656;37.422;2023-05-07T08:16:37;3.08;;;1.42;;
28802;SDS011;15949;55.656;37.422;2023-05-07T08:21:43;5.40;;;1.70;;
28802;SDS011;15949;55.656;37.422;2023-05-07T08:26:48;1.83;;;1.25;;
28802;SDS011;15949;55.656;37.422;2023-05-07T08:31:54;5.65;;;1.58;;
28802;SDS011;15949;55.656;37.422;2023-05-07T08:37:00;4.57;;;1.55;;
28802;SDS011;15949;55.656;37.422;2023-05-07T08:42:06;3.90;;;1.30;;
28802;SDS011;15949;55.656;37.422;2023-05-07T08:47:13;10.48;;;1.58;;
28802;SDS011;15949;55.656;37.422;2023-05-07T08:52:18;5.03;;;1.40;;
28802;SDS011;15949;55.656;37.422;2023-05-07T08:57:25;3.35;;;1.50;;
28802;SDS011;15949;55.656;37.422;2023-05-07T09:02:30;3.22;;;1.45;;
28802;SDS011;15949;55.656;37.422;2023-05-07T09:07:36;3.72;;;1.30;;
28802;SDS011;15949;55.656;37.422;2023-05-07T09:12:41;2.65;;;1.30;;
28802;SDS011;15949;55.656;37.422;2023-05-07T09:17:47;2.92;;;1.20;;
28802;SDS011;15949;55.656;37.422;2023-05-07T09:22:54;2.30;;;1.23;;
28802;SDS011;15949;55.656;37.422;2023-05-07T09:28:01;4.43;;;1.30;;
28802;SDS011;15949;55.656;37.422;2023-05-07T09:33:08;2.28;;;1.27;;
28802;SDS011;15949;55.656;37.422;2023-05-07T09:38:13;2.05;;;1.00;;
28802;SDS011;15949;55.656;37.422;2023-05-07T09:43:19;3.30;;;2.20;;
28802;SDS011;15949;55.656;37.422;2023-05-07T09:48:25;5.80;;;2.58;;
28802;SDS011;15949;55.656;37.422;2023-05-07T09:53:31;4.88;;;1.60;;
28802;SDS011;15949;55.656;37.422;2023-05-07T09:58:38;4.00;;;1.70;;
28802;SDS011;15949;55.656;37.422;2023-05-07T10:03:46;4.22;;;1.63;;
28802;SDS011;15949;55.656;37.422;2023-05-07T10:08:52;3.47;;;1.40;;
28802;SDS011;15949;55.656;37.422;2023-05-07T10:14:00;2.25;;;1.50;;
28802;SDS011;15949;55.656;37.422;2023-05-07T10:19:10;7.80;;;2.28;;
28802;SDS011;15949;55.656;37.422;2023-05-07T10:24:19;4.55;;;1.65;;
28802;SDS011;15949;55.656;37.422;2023-05-07T10:34:36;4.25;;;1.83;;
28802;SDS011;15949;55.656;37.422;2023-05-07T10:39:45;11.85;;;5.70;;
28802;SDS011;15949;55.656;37.422;2023-05-07T10:44:51;6.22;;;1.60;;
28802;SDS011;15949;55.656;37.422;2023-05-07T11:05:32;4.85;;;1.50;;
28802;SDS011;15949;55.656;37.422;2023-05-07T11:10:54;4.30;;;1.67;;
28802;SDS011;15949;55.656;37.422;2023-05-07T11:16:01;2.78;;;1.40;;
28802;SDS011;15949;55.656;37.422;2023-05-07T11:21:07;3.70;;;1.48;;
28802;SDS011;15949;55.656;37.422;2023-05-07T11:26:13;3.67;;;1.67;;
28802;SDS011;15949;55.656;37.422;2023-05-07T11:31:23;14.85;;;2.47;;
28802;SDS011;15949;55.656;37.422;2023-05-07T11:36:31;3.60;;;1.58;;
28802;SDS011;15949;55.656;37.422;2023-05-07T11:41:38;2.42;;;1.63;;
28802;SDS011;15949;55.656;37.422;2023-05-07T11:46:43;3.97;;;1.70;;
28802;SDS011;15949;55.656;37.422;2023-05-07T11:51:50;3.90;;;1.70;;
28802;SDS011;15949;55.656;37.422;2023-05-07T11:56:56;2.80;;;1.30;;
28802;SDS011;15949;55.656;37.422;2023-05-07T12:02:01;6.60;;;1.70;;
28802;SDS011;15949;55.656;37.422;2023-05-07T12:07:16;3.17;;;1.60;;
28802;SDS011;15949;55.656;37.422;2023-05-07T12:12:23;7.00;;;2.20;;
28802;SDS011;15949;55.656;37.422;2023-05-07T12:17:28;3.38;;;1.50;;
28802;SDS011;15949;55.656;37.422;2023-05-07T12:22:34;3.10;;;1.23;;
28802;SDS011;15949;55.656;37.422;2023-05-07T12:27:40;3.40;;;1.63;;
28802;SDS011;15949;55.656;37.422;2023-05-07T12:32:46;3.38;;;1.52;;
28802;SDS011;15949;55.656;37.422;2023-05-07T12:37:58;3.33;;;1.42;;
28802;SDS011;15949;55.656;37.422;2023-05-07T12:43:05;2.53;;;1.50;;
28802;SDS011;15949;55.656;37.422;2023-05-07T12:48:11;4.35;;;1.83;;
28802;SDS011;15949;55.656;37.422;2023-05-07T12:53:16;2.03;;;1.60;;
28802;SDS011;15949;55.656;37.422;2023-05-07T13:03:35;3.20;;;1.75;;
28802;SDS011;15949;55.656;37.422;2023-05-07T13:08:41;5.70;;;1.75;;
28802;SDS011;15949;55.656;37.422;2023-05-07T13:13:50;3.63;;;1.88;;
28802;SDS011;15949;55.656;37.422;2023-05-07T13:18:56;2.47;;;1.58;;
28802;SDS011;15949;55.656;37.422;2023-05-07T13:24:01;2.15;;;1.60;;
28802;SDS011;15949;55.656;37.422;2023-05-07T13:29:07;4.10;;;1.88;;
28802;SDS011;15949;55.656;37.422;2023-05-07T13:34:12;8.63;;;2.40;;
28802;SDS011;15949;55.656;37.422;2023-05-07T13:39:18;4.82;;;1.60;;
28802;SDS011;15949;55.656;37.422;2023-05-07T13:44:23;9.50;;;2.35;;
28802;SDS011;15949;55.656;37.422;2023-05-07T13:49:29;6.07;;;3.30;;
28802;SDS011;15949;55.656;37.422;2023-05-07T13:54:35;3.45;;;1.60;;
28802;SDS011;15949;55.656;37.422;2023-05-07T13:59:40;7.05;;;1.60;;
28802;SDS011;15949;55.656;37.422;2023-05-07T14:04:46;3.00;;;1.52;;
28802;SDS011;15949;55.656;37.422;2023-05-07T14:09:52;2.83;;;1.52;;
28802;SDS011;15949;55.656;37.422;2023-05-07T14:14:57;2.03;;;1.40;;
28802;SDS011;15949;55.656;37.422;2023-05-07T14:20:03;14.35;;;2.15;;
28802;SDS011;15949;55.656;37.422;2023-05-07T14:25:10;2.97;;;1.50;;
28802;SDS011;15949;55.656;37.422;2023-05-07T14:30:15;4.28;;;1.55;;
28802;SDS011;15949;55.656;37.422;2023-05-07T14:35:21;3.95;;;1.70;;
28802;SDS011;15949;55.656;37.422;2023-05-07T14:40:27;2.70;;;1.50;;
28802;SDS011;15949;55.656;37.422;2023-05-07T14:45:33;5.63;;;1.60;;
28802;SDS011;15949;55.656;37.422;2023-05-07T14:50:38;2.35;;;1.33;;
28802;SDS011;15949;55.656;37.422;2023-05-07T14:55:44;4.20;;;1.58;;
28802;SDS011;15949;55.656;37.422;2023-05-07T15:00:50;3.88;;;1.60;;
28802;SDS011;15949;55.656;37.422;2023-05-07T15:05:55;5.50;;;1.92;;
28802;SDS011;15949;55.656;37.422;2023-05-07T15:11:01;6.50;;;1.90;;
28802;SDS011;15949;55.656;37.422;2023-05-07T15:16:07;3.30;;;1.63;;
28802;SDS011;15949;55.656;37.422;2023-05-07T15:21:12;4.88;;;1.70;;
28802;SDS011;15949;55.656;37.422;2023-05-07T15:26:18;7.88;;;1.60;;
28802;SDS011;15949;55.656;37.422;2023-05-07T15:31:24;4.35;;;1.83;;
28802;SDS011;15949;55.656;37.422;2023-05-07T15:36:30;4.57;;;1.65;;
28802;SDS011;15949;55.656;37.422;2023-05-07T15:41:36;17.30;;;2.90;;
28802;SDS011;15949;55.656;37.422;2023-05-07T15:46:42;9.55;;;2.20;;
28802;SDS011;15949;55.656;37.422;2023-05-07T15:51:47;3.55;;;1.80;;
28802;SDS011;15949;55.656;37.422;2023-05-07T15:56:53;9.95;;;1.80;;
28802;SDS011;15949;55.656;37.422;2023-05-07T16:01:59;4.38;;;1.70;;
28802;SDS011;15949;55.656;37.422;2023-05-07T16:07:04;5.53;;;1.90;;
28802;SDS011;15949;55.656;37.422;2023-05-07T16:12:11;3.53;;;1.75;;
28802;SDS011;15949;55.656;37.422;2023-05-07T16:17:16;7.43;;;2.00;;
28802;SDS011;15949;55.656;37.422;2023-05-07T16:22:22;7.32;;;2.10;;
28802;SDS011;15949;55.656;37.422;2023-05-07T16:27:29;9.35;;;2.10;;
28802;SDS011;15949;55.656;37.422;2023-05-07T16:32:35;3.22;;;1.65;;
28802;SDS011;15949;55.656;37.422;2023-05-07T16:37:41;3.88;;;1.83;;
28802;SDS011;15949;55.656;37.422;2023-05-07T16:42:46;4.60;;;1.88;;
28802;SDS011;15949;55.656;37.422;2023-05-07T16:47:52;5.50;;;2.30;;
28802;SDS011;15949;55.656;37.422;2023-05-07T16:52:57;7.13;;;2.40;;
28802;SDS011;15949;55.656;37.422;2023-05-07T16:58:07;5.65;;;2.08;;
28802;SDS011;15949;55.656;37.422;2023-05-07T17:03:13;3.53;;;1.80;;
28802;SDS011;15949;55.656;37.422;2023-05-07T17:08:19;7.13;;;1.92;;
28802;SDS011;15949;55.656;37.422;2023-05-07T17:13:25;4.78;;;2.30;;
28802;SDS011;15949;55.656;37.422;2023-05-07T17:18:30;6.53;;;2.70;;
28802;SDS011;15949;55.656;37.422;2023-05-07T17:23:36;8.73;;;2.33;;
28802;SDS011;15949;55.656;37.422;2023-05-07T17:28:41;7.00;;;2.28;;
28802;SDS011;15949;55.656;37.422;2023-05-07T17:33:47;5.35;;;2.50;;
28802;SDS011;15949;55.656;37.422;2023-05-07T17:38:52;6.75;;;2.60;;
28802;SDS011;15949;55.656;37.422;2023-05-07T17:43:58;6.30;;;2.78;;
28802;SDS011;15949;55.656;37.422;2023-05-07T17:49:05;8.23;;;3.60;;
28802;SDS011;15949;55.656;37.422;2023-05-07T17:54:11;8.20;;;3.92;;
28802;SDS011;15949;55.656;37.422;2023-05-07T17:59:16;9.60;;;3.78;;
28802;SDS011;15949;55.656;37.422;2023-05-07T18:04:22;13.07;;;5.13;;
28802;SDS011;15949;55.656;37.422;2023-05-07T18:09:30;7.82;;;4.32;;
28802;SDS011;15949;55.656;37.422;2023-05-07T18:14:36;13.35;;;4.45;;
28802;SDS011;15949;55.656;37.422;2023-05-07T18:19:41;10.07;;;5.32;;
28802;SDS011;15949;55.656;37.422;2023-05-07T18:24:48;9.80;;;5.22;;
28802;SDS011;15949;55.656;37.422;2023-05-07T18:29:54;12.13;;;7.95;;
28802;SDS011;15949;55.656;37.422;2023-05-07T18:35:00;10.30;;;5.90;;
28802;SDS011;15949;55.656;37.422;2023-05-07T18:40:06;15.95;;;5.88;;
28802;SDS011;15949;55.656;37.422;2023-05-07T18:45:12;11.95;;;6.32;;
28802;SDS011;15949;55.656;37.422;2023-05-07T18:50:18;8.98;;;5.35;;
28802;SDS011;15949;55.656;37.422;2023-05-07T18:55:24;10.93;;;5.10;;
28802;SDS011;15949;55.656;37.422;2023-05-07T19:00:29;10.32;;;4.45;;
28802;SDS011;15949;55.656;37.422;2023-05-07T19:05:35;8.50;;;5.43;;
28802;SDS011;15949;55.656;37.422;2023-05-07T19:10:40;11.35;;;4.78;;
28802;SDS011;15949;55.656;37.422;2023-05-07T19:15:46;9.15;;;4.30;;
28802;SDS011;15949;55.656;37.422;2023-05-07T19:20:52;8.95;;;4.35;;
28802;SDS011;15949;55.656;37.422;2023-05-07T19:25:58;7.75;;;4.20;;
28802;SDS011;15949;55.656;37.422;2023-05-07T19:31:03;9.90;;;4.45;;
28802;SDS011;15949;55.656;37.422;2023-05-07T19:36:09;16.23;;;6.35;;
28802;SDS011;15949;55.656;37.422;2023-05-07T19:41:15;19.25;;;7.00;;
28802;SDS011;15949;55.656;37.422;2023-05-07T19:46:20;9.55;;;5.43;;
28802;SDS011;15949;55.656;37.422;2023-05-07T19:51:26;12.75;;;4.78;;
28802;SDS011;15949;55.656;37.422;2023-05-07T19:56:36;11.52;;;4.70;;
28802;SDS011;15949;55.656;37.422;2023-05-07T20:01:44;12.05;;;5.28;;
28802;SDS011;15949;55.656;37.422;2023-05-07T20:06:49;9.68;;;5.28;;
28802;SDS011;15949;55.656;37.422;2023-05-07T20:11:55;14.45;;;5.47;;
28802;SDS011;15949;55.656;37.422;2023-05-07T20:17:01;12.75;;;6.53;;
28802;SDS011;15949;55.656;37.422;2023-05-07T20:22:06;19.00;;;9.23;;
28802;SDS011;15949;55.656;37.422;2023-05-07T20:27:12;21.92;;;10.77;;
28802;SDS011;15949;55.656;37.422;2023-05-07T20:32:18;21.33;;;10.82;;
28802;SDS011;15949;55.656;37.422;2023-05-07T20:37:23;18.92;;;9.48;;
28802;SDS011;15949;55.656;37.422;2023-05-07T20:42:30;23.02;;;9.95;;
28802;SDS011;15949;55.656;37.422;2023-05-07T20:47:36;19.25;;;9.43;;
28802;SDS011;15949;55.656;37.422;2023-05-07T20:52:41;19.48;;;9.18;;
28802;SDS011;15949;55.656;37.422;2023-05-07T20:57:47;17.38;;;8.45;;
28802;SDS011;15949;55.656;37.422;2023-05-07T21:02:52;13.50;;;7.72;;
28802;SDS011;15949;55.656;37.422;2023-05-07T21:07:58;12.32;;;7.20;;
28802;SDS011;15949;55.656;37.422;2023-05-07T21:13:03;23.48;;;9.65;;
28802;SDS011;15949;55.656;37.422;2023-05-07T21:18:10;15.07;;;7.43;;
28802;SDS011;15949;55.656;37.422;2023-05-07T21:23:16;16.42;;;8.82;;
28802;SDS011;15949;55.656;37.422;2023-05-07T21:28:21;15.70;;;8.82;;
28802;SDS011;15949;55.656;37.422;2023-05-07T21:33:27;18.13;;;9.85;;
28802;SDS011;15949;55.656;37.422;2023-05-07T21:38:32;13.93;;;8.70;;
28802;SDS011;15949;55.656;37.422;2023-05-07T21:43:38;16.50;;;8.45;;
28802;SDS011;15949;55.656;37.422;2023-05-07T21:48:43;17.65;;;8.25;;
28802;SDS011;15949;55.656;37.422;2023-05-07T21:53:49;15.15;;;9.07;;
28802;SDS011;15949;55.656;37.422;2023-05-07T21:58:55;17.30;;;8.35;;
28802;SDS011;15949;55.656;37.422;2023-05-07T22:04:00;14.55;;;8.43;;
28802;SDS011;15949;55.656;37.422;2023-05-07T22:09:06;13.20;;;7.85;;
28802;SDS011;15949;55.656;37.422;2023-05-07T22:14:12;12.07;;;6.72;;
28802;SDS011;15949;55.656;37.422;2023-05-07T22:19:17;15.93;;;6.80;;
28802;SDS011;15949;55.656;37.422;2023-05-07T22:24:23;16.02;;;7.30;;
28802;SDS011;15949;55.656;37.422;2023-05-07T22:29:28;11.90;;;7.22;;
28802;SDS011;15949;55.656;37.422;2023-05-07T22:34:34;15.30;;;7.43;;
28802;SDS011;15949;55.656;37.422;2023-05-07T22:39:40;15.90;;;7.50;;
28802;SDS011;15949;55.656;37.422;2023-05-07T22:44:46;20.00;;;7.38;;
28802;SDS011;15949;55.656;37.422;2023-05-07T22:49:51;12.93;;;7.28;;
28802;SDS011;15949;55.656;37.422;2023-05-07T22:54:57;13.88;;;6.97;;
28802;SDS011;15949;55.656;37.422;2023-05-07T23:00:03;11.13;;;6.78;;
28802;SDS011;15949;55.656;37.422;2023-05-07T23:05:09;14.77;;;6.97;;
28802;SDS011;15949;55.656;37.422;2023-05-07T23:10:14;8.80;;;5.82;;
28802;SDS011;15949;55.656;37.422;2023-05-07T23:15:20;11.50;;;6.18;;
28802;SDS011;15949;55.656;37.422;2023-05-07T23:20:26;9.43;;;6.22;;
28802;SDS011;15949;55.656;37.422;2023-05-07T23:25:31;8.90;;;5.47;;
28802;SDS011;15949;55.656;37.422;2023-05-07T23:30:38;14.82;;;6.40;;
28802;SDS011;15949;55.656;37.422;2023-05-07T23:35:44;9.63;;;5.93;;
28802;SDS011;15949;55.656;37.422;2023-05-07T23:40:51;12.18;;;7.25;;
28802;SDS011;15949;55.656;37.422;2023-05-07T23:45:57;11.20;;;7.38;;
28802;SDS011;15949;55.656;37.422;2023-05-07T23:51:03;12.70;;;6.70;;
28802;SDS011;15949;55.656;37.422;2023-05-07T23:56:08;11.00;;;6.88;;
